Weather observations for the past three days for
New Richmond Municipal Airport
Imperial (Metric)
Date Time (cdt) Wind (mph) Vis. (mi.) Weather Sky Cond. Temperature (ºF) Relative Humidity Wind Chill (°F) Heat Index (°F) Pressure Precipitation (in)
Air Dwpt 6 hour altimeter (in) sea level (mb) 1 hr 3 hr 6 hr
Max. Min.
03 23:35 S 7 10.00 Fair CLR 52.5 32.4 46% 29.59 0.0
03 23:15 S 6 10.00 Fair CLR 54.3 32 43% 29.6 0.0
03 22:55 SW 6 10.00 Fair CLR 54.3 34 46% 29.62 0.0
03 22:35 SW 5 10.00 Fair CLR 53.6 38.5 57% 29.63 0.0
03 22:15 SW 6 10.00 Fair CLR 54.9 39 55% 29.64 0.0
03 21:55 SW 6 10.00 Fair CLR 54.3 37.9 54% 29.64 0.0
03 21:35 SW 5 10.00 Fair CLR 55.8 30.9 39% 29.65 0.0
03 21:15 SW 6 10.00 Fair CLR 56.3 36.3 47% 29.65 0.0
03 20:55 SW 6 10.00 Fair CLR 57.7 33.1 39% 29.64 0.0
03 20:35 SW 6 10.00 Fair CLR 58.6 36.3 43% 29.64 0.0
03 20:15 SW 5 10.00 Fair CLR 61.2 30.7 32% 29.65 0.0
03 19:55 W 5 10.00 Fair CLR 62.6 29.5 29% 29.65 0.0
03 19:35 W 6 10.00 Fair CLR 64.6 30.4 28% 29.66 0.0
03 19:15 W 8 10.00 Fair CLR 63.1 29.1 28% 29.66 0.0
03 18:55 W 9 10.00 Fair CLR 66 28 69.8 66 24% 29.66 0.0
03 18:35 W 10 10.00 Fair CLR 67.6 26.8 21% 29.66 0.0
03 18:15 W 14 G 17 10.00 Fair CLR 67.8 25.7 20% 29.66 0.0
03 17:55 W 12 G 17 10.00 Fair CLR 68 25.3 20% 29.67 0.0
03 17:35 W 13 10.00 Fair CLR 68.9 25.7 20% 29.66 0.0
03 17:15 W 12 G 20 10.00 Fair CLR 68.7 23.9 18% 29.67 0.0
03 16:55 NW 8 G 17 10.00 Fair CLR 68.9 23.5 18% 29.67 0.0
03 16:35 NW 14 G 23 10.00 Fair CLR 68.7 22.6 17% 29.68 0.0
03 16:15 NW 16 G 28 10.00 Fair CLR 68.5 21.6 17% 29.68 0.0
03 15:55 NW 15 G 20 10.00 Fair CLR 69.3 20.8 16% 29.69 0.0
03 15:35 NW 17 G 24 10.00 Fair CLR 69.1 21.9 17% 29.68 0.0
03 15:15 W 12 G 20 10.00 Fair CLR 69.3 24.3 18% 29.68 0.0
03 14:55 NW 15 G 21 10.00 Fair CLR 69.3 24.3 18% 29.69 0.0
03 14:35 NW 17 G 23 10.00 Fair CLR 68.9 23.9 18% 29.7 0.0
03 14:15 NW 16 G 23 10.00 Fair CLR 69.3 19.8 15% 29.7 0.0
03 13:55 W 22 G 26 10.00 Fair and Breezy CLR 68.9 24.6 19% 29.7 0.0
03 13:35 NW 17 G 26 10.00 Fair CLR 68.2 32.5 27% 29.7 0.0
03 13:15 W 17 G 24 10.00 Fair CLR 68.5 37 32% 29.7 0.0
03 12:55 NW 14 G 21 10.00 Fair CLR 68.2 37.4 68.2 47.7 32% 29.71 0.0
03 12:35 NW 14 G 24 10.00 Fair CLR 67.3 36.9 33% 29.71 0.0
03 12:15 NW 15 G 22 10.00 Fair CLR 67.3 36.7 32% 29.71 0.0
03 11:55 NW 12 G 20 10.00 Fair CLR 67.1 35.8 32% 29.72 0.0
03 11:35 N 7 G 17 10.00 Fair CLR 66 35.6 33% 29.71 0.0
03 11:15 N 10 10.00 Fair CLR 65.5 35.8 33% 29.71 0.0
03 10:55 NW 12 G 18 10.00 Fair CLR 65.1 35.8 34% 29.71 0.0
03 10:35 N 7 10.00 Fair CLR 63.5 36 36% 29.71 0.0
03 10:15 N 8 G 16 10.00 Fair CLR 62.1 36.5 39% 29.71 0.0
03 09:55 NW 7 G 18 10.00 Fair CLR 61.2 36.7 40% 29.7 0.0
03 09:35 NW 9 10.00 Fair CLR 60.6 35.8 40% 29.7 0.0
03 09:15 NW 7 10.00 Fair CLR 59.2 35.6 41% 29.7 0.0
03 08:55 NW 8 10.00 Fair CLR 58.1 35.2 42% 29.7 0.0
03 08:35 W 7 10.00 Fair CLR 57.2 35.8 45% 29.7 0.0
03 08:15 SW 6 10.00 Fair CLR 55.8 36.9 49% 29.7 0.0
03 07:55 SW 6 10.00 Fair CLR 54.7 37 52% 29.69 0.0
03 07:35 S 3 10.00 Fair CLR 52.5 38.3 59% 29.69 0.0
03 07:15 Calm 10.00 Fair CLR 49.5 37.6 64% 29.69 0.0
03 06:55 Calm 10.00 Fair CLR 47.5 37.4 54.5 44.8 68% 29.69 0.0
03 06:35 E 3 10.00 Fair CLR 46.6 37.2 70% 29.69 0.0
03 06:15 SE 5 10.00 Fair CLR 45.7 36.9 71% 44 29.68 0.0
03 05:55 SE 5 10.00 Fair CLR 46.4 36.7 69% 45 29.68 0.0
03 05:35 SE 3 10.00 Fair CLR 45.1 37.6 75% 29.69 0.0
03 05:15 Calm 10.00 Fair CLR 47.5 37 67% 29.69 0.0
03 04:55 E 3 10.00 Mostly Cloudy BKN100 46.9 37.4 70% 29.7 0.0
03 04:35 Calm 10.00 Mostly Cloudy BKN100 50.5 36.7 59% 29.69 0.0
03 04:15 S 6 10.00 Fair CLR 51.6 36.9 57% 29.68 0.0
03 03:55 S 7 10.00 Partly Cloudy SCT120 52 36.7 56% 29.69 0.0
03 03:35 S 8 10.00 Partly Cloudy SCT100 SCT120 53.1 36.5 54% 29.69 0.0
03 03:15 S 8 10.00 Partly Cloudy SCT090 53.8 36.3 52% 29.7 0.0
03 02:55 S 9 10.00 Mostly Cloudy BKN100 54.5 36 50% 29.7 0.0
03 02:35 S 9 10.00 Mostly Cloudy BKN100 54 35.8 50% 29.72 0.0
03 02:15 S 8 10.00 Fair CLR 52.7 36.1 54% 29.73 0.0
03 01:55 S 8 10.00 Partly Cloudy SCT080 52.9 36.5 54% 29.74 0.0
03 01:35 S 9 10.00 Mostly Cloudy BKN090 54 36.7 52% 29.75 0.0
03 01:15 S 9 10.00 Partly Cloudy SCT100 53.2 36.7 54% 29.76 0.0
03 00:55 S 7 10.00 Partly Cloudy SCT100 53.6 36.7 61.7 53.6 53% 29.77 0.0
03 00:35 S 7 10.00 Overcast OVC100 55.2 36.7 50% 29.77 0.0
03 00:15 S 7 10.00 Overcast OVC090 55.9 36.5 48% 29.78 0.0
02 23:55 S 8 10.00 Mostly Cloudy SCT080 BKN090 57.2 35.6 44% 29.78 0.0
02 23:35 S 8 10.00 Mostly Cloudy SCT075 SCT085 BKN110 58.1 35.1 42% 29.79 0.0
02 23:15 S 6 10.00 Light Rain SCT060 BKN090 OVC120 57.6 35.8 44% 29.8 0.0
02 22:55 S 6 10.00 Overcast SCT070 OVC090 57.4 37 47% 29.81 0.0
02 22:35 SW 6 10.00 Overcast SCT070 OVC090 58.3 35.1 42% 29.82 0.0
02 22:15 SW 8 10.00 Overcast OVC100 59.4 34 39% 29.82 0.0
02 21:55 W 12 10.00 Overcast SCT085 OVC100 58.8 34.3 40% 29.83 0.0
02 21:35 SW 7 10.00 Overcast OVC085 59.2 35.4 41% 29.83 0.0
02 21:15 SW 9 10.00 Overcast OVC080 59.9 35.6 40% 29.84 0.0
02 20:55 W 5 10.00 Overcast OVC080 59.5 35.8 41% 29.84 0.0
02 20:35 W 6 10.00 Overcast OVC090 59.7 34.3 39% 29.84 0.0
02 20:15 SW 6 10.00 Overcast SCT080 OVC090 59.9 34.3 38% 29.84 0.0
02 19:55 SW 3 10.00 Overcast OVC080 59.2 35.8 42% 29.84 0.0
02 19:35 SW 3 10.00 Overcast BKN070 OVC080 60.3 35.8 40% 29.84 0.0
02 19:15 W 3 10.00 Overcast OVC080 61.2 32.9 35% 29.85 0.0
02 18:55 W 8 10.00 Mostly Cloudy BKN080 BKN110 61.7 32.7 63.1 57.6 34% 29.86 0.0
02 18:35 W 12 G 29 10.00 Mostly Cloudy BKN080 BKN120 62.1 32.4 33% 29.87 0.0
02 18:15 SW 8 10.00 Mostly Cloudy BKN090 62.1 32.4 33% 29.87 0.0
02 17:55 SW 8 10.00 Partly Cloudy SCT090 61.7 31.8 33% 29.87 0.0
02 17:35 SW 8 10.00 Fair CLR 62.1 30.9 31% 29.88 0.0
02 17:15 SW 12 10.00 Fair CLR 62.1 30.9 31% 29.88 0.0
02 16:55 SW 12 10.00 Mostly Cloudy BKN120 62.1 30 30% 29.89 0.0
02 16:35 SW 13 10.00 Mostly Cloudy BKN110 61.3 30.2 31% 29.9 0.0
02 16:15 W 8 G 12 10.00 Partly Cloudy SCT120 60.8 29.1 30% 29.91 0.0
02 15:55 SW 10 10.00 Partly Cloudy SCT110 62.4 29.1 28% 29.92 0.0
02 15:35 SW 14 G 20 10.00 Partly Cloudy SCT110 62.1 29.5 29% 29.93 0.0
02 15:15 SW 10 10.00 Partly Cloudy SCT110 61.7 28.8 29% 29.94 0.0
02 14:55 SW 12 G 17 10.00 Fair CLR 61.9 28.9 29% 29.95 0.0
02 14:35 SW 9 G 16 10.00 Fair CLR 60.3 27.7 29% 29.96 0.0
02 14:15 SW 12 10.00 Fair CLR 60.1 28.8 30% 29.97 0.0
02 13:55 S 6 G 20 10.00 Fair CLR 59.2 28 31% 29.98 0.0
02 13:35 SW 13 G 17 10.00 Partly Cloudy SCT090 59.7 28.8 31% 29.99 0.0
02 13:15 SW 13 G 16 10.00 Partly Cloudy SCT090 58.6 27.9 31% 30 0.0
02 12:55 W 15 G 18 10.00 Fair CLR 57.9 27.1 58.3 34 31% 30 0.0
02 12:35 W 12 G 29 10.00 Fair CLR 57 25.7 30% 30.02 0.0
02 12:15 W 12 G 18 10.00 Fair CLR 57 25.9 30% 30.02 0.0
02 11:55 SW 10 G 16 10.00 Fair CLR 55.6 25.3 31% 30.03 0.0
02 11:35 W 8 10.00 Fair CLR 56.1 26.2 32% 30.04 0.0
02 11:15 W 14 G 21 10.00 Fair CLR 55 24.8 31% 30.04 0.0
02 10:55 W 9 G 16 10.00 Fair CLR 55 25.9 32% 30.05 0.0
02 10:35 W 13 10.00 Fair CLR 54.7 26.8 34% 30.05 0.0
02 10:15 W 8 10.00 Fair CLR 53.6 26.1 34% 30.06 0.0
02 09:55 W 9 10.00 Fair CLR 51.8 26.6 38% 30.06 0.0
02 09:35 W 9 10.00 Fair CLR 50 28.8 44% 47 30.07 0.0
02 09:15 W 7 10.00 Fair CLR 47.8 30.4 51% 45 30.07 0.0
02 08:55 W 6 10.00 Fair CLR 46.2 30.2 54% 44 30.07 0.0
02 08:35 W 7 10.00 Fair CLR 44.8 30.6 58% 41 30.07 0.0
02 08:15 W 6 10.00 Fair CLR 43.5 30.9 61% 41 30.07 0.0
02 07:55 W 5 10.00 Fair CLR 42.3 31.8 67% 40 30.07 0.0
02 07:35 Calm 10.00 Fair CLR 39.6 31.3 72% 30.07 0.0
02 07:15 SW 3 10.00 Fair CLR 37.6 31.8 80% 30.07 0.0
02 06:55 Calm 10.00 Fair CLR 33.6 31.1 38.3 30.6 90% 30.07 0.0
02 06:35 Calm 10.00 Fair CLR 31.8 29.3 90% 30.07 0.0
02 06:15 Calm 10.00 Fair CLR 31.5 28.2 88% 30.07 0.0
02 05:55 Calm 10.00 Fair CLR 31.5 29.1 91% 30.07 0.0
02 05:35 Calm 10.00 Fair CLR 31.8 28.8 88% 30.07 0.0
02 05:15 Calm 10.00 Fair CLR 31.8 28.8 88% 30.07 0.0
02 04:55 Calm 10.00 Fair CLR 32 28.2 86% 30.07 0.0
02 04:35 Calm 10.00 Fair CLR 32.2 28 85% 30.07 0.0
02 04:15 Calm 10.00 Fair CLR 32.7 28.2 84% 30.07 0.0
02 03:55 Calm 10.00 Partly Cloudy SCT085 33.4 29.3 85% 30.07 0.0
02 03:35 S 3 10.00 Partly Cloudy SCT085 33.1 29.3 86% 30.07 0.0
02 03:15 Calm 10.00 Partly Cloudy SCT085 32.4 29.3 89% 30.07 0.0
02 02:55 Calm 10.00 Fair CLR 33.1 29.5 87% 30.07 0.0
02 02:35 Calm 10.00 Fair CLR 33.4 29.5 85% 30.07 0.0
02 02:15 Calm 10.00 Fair CLR 33.8 28.9 82% 30.07 0.0
02 01:55 Calm 10.00 Fair CLR 36.5 29.3 75% 30.07 0.0
02 01:35 Calm 10.00 Fair CLR 37.2 29.3 73% 30.07 0.0
02 01:15 S 3 10.00 Fair CLR 36 29.7 78% 30.08 0.0
02 00:55 Calm 10.00 Fair CLR 36.5 30.4 50.9 35.8 79% 30.08 0.0
02 00:35 Calm 10.00 Fair CLR 37.6 30.2 75% 30.08 0.0
02 00:15 S 3 10.00 Fair CLR 41 30.7 67% 30.08 0.0
01 23:55 Calm 10.00 Fair CLR 40.3 28.4 63% 30.07 0.0
01 23:35 Calm 10.00 Partly Cloudy SCT090 42.6 28.9 59% 30.07 0.0
01 23:15 S 3 10.00 Mostly Cloudy BKN090 42.4 26.6 54% 30.08 0.0
01 22:55 S 5 10.00 Overcast OVC100 42.1 30.2 63% 40 30.08 0.0
01 22:35 Calm 10.00 Overcast OVC100 43.2 31.1 63% 30.08 0.0
01 22:15 S 3 10.00 Overcast OVC100 42.8 28.6 57% 30.08 0.0
01 21:55 SW 5 10.00 Overcast OVC100 42.4 32.2 67% 40 30.08 0.0
01 21:35 Calm 10.00 Overcast OVC100 41 28.6 61% 30.08 0.0
01 21:15 Calm 10.00 Mostly Cloudy BKN100 40.1 28.2 63% 30.08 0.0
01 20:55 Calm 10.00 Partly Cloudy SCT100 43.7 25.7 49% 30.07 0.0
01 20:35 Calm 10.00 Partly Cloudy SCT100 43.9 24.6 47% 30.07 0.0
01 20:10 Calm 10.00 Mostly Cloudy BKN100 47.3 23.9 40% 30.07 0.0
01 19:55 Calm 10.00 Mostly Cloudy BKN100 47.1 24.1 40% 30.06 0.0
01 19:35 NW 6 10.00 Mostly Cloudy BKN100 49.1 21.2 33% 47 30.06 0.0
01 19:15 NW 7 10.00 Partly Cloudy SCT100 50.5 21.7 32% 30.06 0.0
01 18:55 NW 7 10.00 Partly Cloudy SCT090 50 22.1 53.4 47.5 33% 48 30.06 0.0
01 18:35 NW 6 10.00 Mostly Cloudy BKN090 49.6 21.4 33% 48 30.06 0.0
01 18:15 E 3 10.00 Overcast OVC090 51.1 20.3 30% 30.06 0.0
01 17:55 Calm 10.00 Overcast OVC090 51.3 21 30% 30.06 0.0
01 17:35 N 3 10.00 Overcast OVC075 50.2 20.3 31% 30.06 0.0
01 17:15 N 6 10.00 Mostly Cloudy BKN075 50.5 20.3 30% 30.06 0.0
01 16:55 NE 3 10.00 Mostly Cloudy BKN075 BKN090 50.4 20.1 30% 30.06 0.0
01 16:35 N 7 10.00 Mostly Cloudy BKN075 50 19.9 30% 48 30.06 0.0
01 16:15 N 6 10.00 Partly Cloudy SCT075 51.1 20.8 30% 30.07 0.0
01 15:55 NW 10 10.00 Mostly Cloudy BKN075 53.1 21.9 30% 30.07 0.0
01 15:35 N 6 G 16 10.00 Mostly Cloudy BKN075 52 21.2 30% 30.07 0.0
01 15:15 N 7 10.00 Mostly Cloudy BKN065 50.5 21 31% 30.07 0.0
01 14:55 W 7 10.00 Mostly Cloudy BKN065 51.6 21 30% 30.07 0.0
01 14:35 W 7 G 16 10.00 Mostly Cloudy BKN065 49.5 20.3 32% 47 30.07 0.0
01 14:15 NE 6 G 16 10.00 Partly Cloudy SCT065 50.4 21 31% 30.08 0.0
01 13:55 NW 13 G 20 10.00 Partly Cloudy SCT065 50.5 19.8 30% 30.08 0.0
01 13:35 NW 12 10.00 Mostly Cloudy BKN065 47.5 19.8 33% 43 30.08 0.0
01 13:15 N 10 G 16 10.00 Partly Cloudy SCT065 48.9 20.1 32% 45 30.09 0.0
01 12:55 N 9 10.00 Partly Cloudy SCT065 49.1 20.1 49.3 38.3 32% 46 30.09 0.0
01 12:35 N 9 G 18 10.00 Partly Cloudy SCT065 48.6 20.7 33% 45 30.09 0.0
01 12:15 N 12 G 18 10.00 Partly Cloudy SCT065 47.7 20.1 34% 43 30.09 0.0
01 11:55 NE 10 G 18 10.00 Partly Cloudy SCT065 48 19 32% 44 30.09 0.0
01 11:35 NE 6 10.00 Partly Cloudy SCT055 46 19.9 35% 44 30.1 0.0
01 11:15 N 12 10.00 Partly Cloudy SCT055 45.5 20.5 37% 40 30.1 0.0
01 10:55 N 13 G 17 10.00 Partly Cloudy SCT055 46.4 21.2 37% 41 30.1 0.0
01 10:35 NE 12 G 17 10.00 Partly Cloudy SCT055 45.3 20.7 37% 40 30.09 0.0
01 10:15 NE 9 G 18 10.00 Fair CLR 45.1 21 38% 41 30.1 0.0
01 09:55 NE 15 G 20 10.00 Fair CLR 44.4 21.2 40% 38 30.09 0.0
01 09:35 N 12 G 20 10.00 Fair CLR 44.1 21.9 41% 39 30.1 0.0
01 09:15 N 9 G 18 10.00 Fair CLR 42.4 22.5 45% 38 30.1 0.0
01 08:55 N 12 10.00 Fair CLR 41.2 22.5 47% 35 30.1 0.0
01 08:35 NE 13 10.00 Fair CLR 41.2 23 48% 35 30.1 0.0
01 08:15 N 8 10.00 Fair CLR 40.1 23 51% 35 30.09 0.0
01 07:55 N 8 10.00 Partly Cloudy SCT065 39.6 22.6 51% 35 30.09 0.0
01 07:35 N 10 10.00 Mostly Cloudy BKN075 39.6 23 52% 34 30.09 0.0
01 07:15 NE 9 10.00 Mostly Cloudy BKN075 39.2 26.2 60% 34 30.08 0.0
01 06:55 NE 6 10.00 Overcast OVC075 38.3 28.9 39.2 36.5 69% 34 30.07 0.0
01 06:35 N 3 10.00 Overcast OVC075 37.8 29.8 73% 30.07 0.0
01 06:15 N 3 10.00 Overcast OVC075 36.7 29.3 75% 30.07 0.0
01 05:55 NE 3 10.00 Overcast OVC065 36.9 29.7 75% 30.06 0.0
01 05:35 Calm 10.00 Overcast OVC065 36.9 29.8 76% 30.06 0.0
01 05:15 NE 3 10.00 Overcast SCT065 OVC075 37 29.5 74% 30.06 0.0
01 04:55 Calm 10.00 Overcast OVC075 37 29.3 74% 30.06 0.0
01 04:35 Calm 10.00 Overcast OVC075 37 28.6 72% 30.05 0.0
01 04:15 N 3 10.00 Overcast OVC075 37.4 28.6 71% 30.06 0.0
01 03:55 NE 3 10.00 Overcast OVC075 37.4 29.3 73% 30.06 0.0
01 03:35 NE 3 10.00 Overcast SCT065 OVC075 37.6 28.4 70% 30.05 0.0
01 03:15 Calm 10.00 Overcast SCT065 OVC075 37.4 28.8 71% 30.05 0.0
01 02:55 NE 3 10.00 Overcast BKN065 OVC075 37.9 27.9 67% 30.05 0.0
01 02:35 Calm 10.00 Overcast BKN065 OVC075 38.3 27.3 65% 30.05 0.0
01 02:15 Calm 10.00 Overcast SCT065 OVC075 38.3 27.3 65% 30.05 0.0
01 01:55 E 3 10.00 Overcast SCT065 OVC075 38.3 27.5 65% 30.05 0.0
01 01:35 E 3 10.00 Overcast SCT065 OVC075 38.7 27.7 65% 30.05 0.0
01 01:15 NE 5 10.00 Overcast OVC075 38.8 27.7 64% 36 30.05 0.0
01 00:55 NE 5 10.00 Overcast OVC075 39 27 47.3 39 62% 36 30.04 0.0
01 00:35 E 7 10.00 Overcast OVC075 39.6 26.8 60% 35 30.04 0.0
01 00:15 NE 7 10.00 Overcast OVC075 40.1 26.8 59% 36 30.04 0.0
30 23:55 E 8 10.00 Overcast OVC075 40.1 26.6 59% 35 30.03 0.0
Date Time (cdt) Wind (mph) Vis. (mi.) Weather Sky Cond. Air Dwpt Max. Min. Relative Humidity Wind Chill (°F) Heat Index (°F) altimeter (in) sea level (mb) 1 hr 3 hr 6 hr
6 hour
Temperature (ºF) Pressure Precipitation (in)